sensor_id;sensor_type;location;lat;lon;timestamp;P1;durP1;ratioP1;P2;durP2;ratioP2
11427;SDS011;5770;44.504;11.346;2022-12-18T00:01:04;8.32;;;6.13;;
11427;SDS011;5770;44.504;11.346;2022-12-18T00:03:32;7.10;;;5.40;;
11427;SDS011;5770;44.504;11.346;2022-12-18T00:06:02;6.85;;;4.93;;
11427;SDS011;5770;44.504;11.346;2022-12-18T00:08:32;5.68;;;5.07;;
11427;SDS011;5770;44.504;11.346;2022-12-18T00:11:03;5.47;;;4.97;;
11427;SDS011;5770;44.504;11.346;2022-12-18T00:13:30;5.25;;;4.75;;
11427;SDS011;5770;44.504;11.346;2022-12-18T00:16:02;5.28;;;4.68;;
11427;SDS011;5770;44.504;11.346;2022-12-18T00:18:30;5.63;;;5.10;;
11427;SDS011;5770;44.504;11.346;2022-12-18T00:20:58;12.82;;;9.77;;
11427;SDS011;5770;44.504;11.346;2022-12-18T00:23:26;10.23;;;8.70;;
11427;SDS011;5770;44.504;11.346;2022-12-18T00:25:54;6.32;;;5.63;;
11427;SDS011;5770;44.504;11.346;2022-12-18T00:28:21;27.48;;;16.25;;
11427;SDS011;5770;44.504;11.346;2022-12-18T00:30:48;9.85;;;7.95;;
11427;SDS011;5770;44.504;11.346;2022-12-18T00:33:18;5.68;;;5.10;;
11427;SDS011;5770;44.504;11.346;2022-12-18T00:35:45;6.57;;;5.13;;
11427;SDS011;5770;44.504;11.346;2022-12-18T00:38:12;6.47;;;4.78;;
11427;SDS011;5770;44.504;11.346;2022-12-18T00:40:40;5.50;;;4.97;;
11427;SDS011;5770;44.504;11.346;2022-12-18T00:43:08;5.70;;;5.13;;
11427;SDS011;5770;44.504;11.346;2022-12-18T00:45:34;6.15;;;5.32;;
11427;SDS011;5770;44.504;11.346;2022-12-18T00:48:01;5.53;;;5.03;;
11427;SDS011;5770;44.504;11.346;2022-12-18T00:50:30;6.13;;;5.32;;
11427;SDS011;5770;44.504;11.346;2022-12-18T00:52:58;6.10;;;5.15;;
11427;SDS011;5770;44.504;11.346;2022-12-18T00:55:25;5.45;;;4.82;;
11427;SDS011;5770;44.504;11.346;2022-12-18T00:57:53;5.82;;;5.22;;
11427;SDS011;5770;44.504;11.346;2022-12-18T01:00:20;6.55;;;5.20;;
11427;SDS011;5770;44.504;11.346;2022-12-18T01:02:48;5.50;;;4.93;;
11427;SDS011;5770;44.504;11.346;2022-12-18T01:05:15;5.80;;;5.22;;
11427;SDS011;5770;44.504;11.346;2022-12-18T01:07:44;5.60;;;5.10;;
11427;SDS011;5770;44.504;11.346;2022-12-18T01:10:11;5.38;;;4.88;;
11427;SDS011;5770;44.504;11.346;2022-12-18T01:12:39;7.55;;;5.60;;
11427;SDS011;5770;44.504;11.346;2022-12-18T01:15:07;5.75;;;5.20;;
11427;SDS011;5770;44.504;11.346;2022-12-18T01:17:36;5.82;;;5.32;;
11427;SDS011;5770;44.504;11.346;2022-12-18T01:20:04;5.18;;;4.78;;
11427;SDS011;5770;44.504;11.346;2022-12-18T01:22:33;5.32;;;4.82;;
11427;SDS011;5770;44.504;11.346;2022-12-18T01:25:02;6.05;;;4.97;;
11427;SDS011;5770;44.504;11.346;2022-12-18T01:27:30;7.38;;;5.22;;
11427;SDS011;5770;44.504;11.346;2022-12-18T01:29:57;5.50;;;5.00;;
11427;SDS011;5770;44.504;11.346;2022-12-18T01:32:25;5.60;;;5.05;;
11427;SDS011;5770;44.504;11.346;2022-12-18T01:34:52;6.45;;;5.40;;
11427;SDS011;5770;44.504;11.346;2022-12-18T01:37:19;6.10;;;5.25;;
11427;SDS011;5770;44.504;11.346;2022-12-18T01:39:46;5.70;;;5.20;;
11427;SDS011;5770;44.504;11.346;2022-12-18T01:42:16;6.10;;;5.13;;
11427;SDS011;5770;44.504;11.346;2022-12-18T01:47:36;5.72;;;5.22;;
11427;SDS011;5770;44.504;11.346;2022-12-18T01:50:09;6.20;;;5.60;;
11427;SDS011;5770;44.504;11.346;2022-12-18T01:52:39;6.53;;;5.57;;
11427;SDS011;5770;44.504;11.346;2022-12-18T01:55:08;6.03;;;5.43;;
11427;SDS011;5770;44.504;11.346;2022-12-18T01:57:38;6.20;;;5.32;;
11427;SDS011;5770;44.504;11.346;2022-12-18T02:00:07;6.20;;;5.60;;
11427;SDS011;5770;44.504;11.346;2022-12-18T02:02:36;6.60;;;5.85;;
11427;SDS011;5770;44.504;11.346;2022-12-18T02:05:04;6.55;;;5.95;;
11427;SDS011;5770;44.504;11.346;2022-12-18T02:07:35;9.88;;;5.95;;
11427;SDS011;5770;44.504;11.346;2022-12-18T02:10:10;6.00;;;5.40;;
11427;SDS011;5770;44.504;11.346;2022-12-18T02:12:44;6.25;;;5.65;;
11427;SDS011;5770;44.504;11.346;2022-12-18T02:15:15;6.82;;;6.20;;
11427;SDS011;5770;44.504;11.346;2022-12-18T02:17:45;6.20;;;5.68;;
11427;SDS011;5770;44.504;11.346;2022-12-18T02:20:20;7.72;;;5.97;;
11427;SDS011;5770;44.504;11.346;2022-12-18T02:25:54;6.97;;;6.30;;
11427;SDS011;5770;44.504;11.346;2022-12-18T02:28:34;6.68;;;6.05;;
11427;SDS011;5770;44.504;11.346;2022-12-18T02:31:10;6.32;;;5.72;;
11427;SDS011;5770;44.504;11.346;2022-12-18T02:33:41;7.03;;;6.32;;
11427;SDS011;5770;44.504;11.346;2022-12-18T02:36:10;7.90;;;6.22;;
11427;SDS011;5770;44.504;11.346;2022-12-18T02:38:37;6.88;;;6.18;;
11427;SDS011;5770;44.504;11.346;2022-12-18T02:41:07;7.85;;;6.28;;
11427;SDS011;5770;44.504;11.346;2022-12-18T02:43:34;7.00;;;6.30;;
11427;SDS011;5770;44.504;11.346;2022-12-18T02:48:57;6.63;;;6.03;;
11427;SDS011;5770;44.504;11.346;2022-12-18T02:51:33;6.80;;;6.13;;
11427;SDS011;5770;44.504;11.346;2022-12-18T02:54:16;6.97;;;6.38;;
11427;SDS011;5770;44.504;11.346;2022-12-18T02:56:48;8.25;;;6.05;;
11427;SDS011;5770;44.504;11.346;2022-12-18T02:59:19;9.18;;;6.18;;
11427;SDS011;5770;44.504;11.346;2022-12-18T03:01:58;6.63;;;6.03;;
11427;SDS011;5770;44.504;11.346;2022-12-18T03:04:33;6.60;;;6.00;;
11427;SDS011;5770;44.504;11.346;2022-12-18T03:07:08;7.35;;;5.90;;
11427;SDS011;5770;44.504;11.346;2022-12-18T03:09:39;6.50;;;5.30;;
11427;SDS011;5770;44.504;11.346;2022-12-18T03:12:12;7.22;;;6.53;;
11427;SDS011;5770;44.504;11.346;2022-12-18T03:14:52;6.32;;;5.70;;
11427;SDS011;5770;44.504;11.346;2022-12-18T03:17:23;6.00;;;5.45;;
11427;SDS011;5770;44.504;11.346;2022-12-18T03:19:53;6.80;;;6.03;;
11427;SDS011;5770;44.504;11.346;2022-12-18T03:22:24;7.82;;;5.93;;
11427;SDS011;5770;44.504;11.346;2022-12-18T03:24:54;7.25;;;6.47;;
11427;SDS011;5770;44.504;11.346;2022-12-18T03:27:25;7.18;;;6.43;;
11427;SDS011;5770;44.504;11.346;2022-12-18T03:29:57;6.93;;;6.10;;
11427;SDS011;5770;44.504;11.346;2022-12-18T03:32:33;6.72;;;6.10;;
11427;SDS011;5770;44.504;11.346;2022-12-18T03:35:04;8.07;;;6.63;;
11427;SDS011;5770;44.504;11.346;2022-12-18T03:37:33;6.95;;;6.25;;
11427;SDS011;5770;44.504;11.346;2022-12-18T03:40:00;6.50;;;5.90;;
11427;SDS011;5770;44.504;11.346;2022-12-18T03:42:30;7.18;;;6.47;;
11427;SDS011;5770;44.504;11.346;2022-12-18T03:45:04;7.78;;;6.22;;
11427;SDS011;5770;44.504;11.346;2022-12-18T03:47:38;7.13;;;6.40;;
11427;SDS011;5770;44.504;11.346;2022-12-18T03:50:11;7.30;;;6.32;;
11427;SDS011;5770;44.504;11.346;2022-12-18T03:52:41;6.97;;;6.28;;
11427;SDS011;5770;44.504;11.346;2022-12-18T03:55:11;7.88;;;6.45;;
11427;SDS011;5770;44.504;11.346;2022-12-18T03:57:40;8.35;;;6.53;;
11427;SDS011;5770;44.504;11.346;2022-12-18T04:00:10;7.22;;;6.05;;
11427;SDS011;5770;44.504;11.346;2022-12-18T04:02:40;11.75;;;6.70;;
11427;SDS011;5770;44.504;11.346;2022-12-18T04:05:09;6.80;;;6.20;;
11427;SDS011;5770;44.504;11.346;2022-12-18T04:07:38;6.65;;;6.03;;
11427;SDS011;5770;44.504;11.346;2022-12-18T04:10:06;7.43;;;6.45;;
11427;SDS011;5770;44.504;11.346;2022-12-18T04:12:34;6.90;;;6.30;;
11427;SDS011;5770;44.504;11.346;2022-12-18T04:15:05;9.80;;;6.93;;
11427;SDS011;5770;44.504;11.346;2022-12-18T04:17:33;6.68;;;6.05;;
11427;SDS011;5770;44.504;11.346;2022-12-18T04:20:01;8.18;;;6.65;;
11427;SDS011;5770;44.504;11.346;2022-12-18T04:22:28;8.95;;;6.20;;
11427;SDS011;5770;44.504;11.346;2022-12-18T04:24:55;10.73;;;7.03;;
11427;SDS011;5770;44.504;11.346;2022-12-18T04:27:22;7.38;;;6.68;;
11427;SDS011;5770;44.504;11.346;2022-12-18T04:29:50;7.53;;;6.82;;
11427;SDS011;5770;44.504;11.346;2022-12-18T04:32:18;10.15;;;6.63;;
11427;SDS011;5770;44.504;11.346;2022-12-18T04:34:45;8.15;;;6.80;;
11427;SDS011;5770;44.504;11.346;2022-12-18T04:37:16;7.20;;;6.60;;
11427;SDS011;5770;44.504;11.346;2022-12-18T04:39:43;7.03;;;6.20;;
11427;SDS011;5770;44.504;11.346;2022-12-18T04:42:10;7.38;;;6.68;;
11427;SDS011;5770;44.504;11.346;2022-12-18T04:44:37;7.15;;;6.45;;
11427;SDS011;5770;44.504;11.346;2022-12-18T04:47:07;7.68;;;6.47;;
11427;SDS011;5770;44.504;11.346;2022-12-18T04:49:35;8.68;;;6.75;;
11427;SDS011;5770;44.504;11.346;2022-12-18T04:52:02;7.50;;;6.80;;
11427;SDS011;5770;44.504;11.346;2022-12-18T04:54:30;6.78;;;6.07;;
11427;SDS011;5770;44.504;11.346;2022-12-18T04:56:57;7.45;;;5.97;;
11427;SDS011;5770;44.504;11.346;2022-12-18T04:59:24;7.90;;;6.90;;
11427;SDS011;5770;44.504;11.346;2022-12-18T05:01:51;8.60;;;6.10;;
11427;SDS011;5770;44.504;11.346;2022-12-18T05:04:18;7.90;;;6.68;;
11427;SDS011;5770;44.504;11.346;2022-12-18T05:06:47;7.20;;;6.50;;
11427;SDS011;5770;44.504;11.346;2022-12-18T05:09:14;7.18;;;6.45;;
11427;SDS011;5770;44.504;11.346;2022-12-18T05:11:41;8.20;;;6.95;;
11427;SDS011;5770;44.504;11.346;2022-12-18T05:14:08;8.35;;;6.47;;
11427;SDS011;5770;44.504;11.346;2022-12-18T05:16:35;7.60;;;6.78;;
11427;SDS011;5770;44.504;11.346;2022-12-18T05:19:02;7.30;;;6.60;;
11427;SDS011;5770;44.504;11.346;2022-12-18T05:21:30;7.05;;;6.35;;
11427;SDS011;5770;44.504;11.346;2022-12-18T05:23:59;7.07;;;6.05;;
11427;SDS011;5770;44.504;11.346;2022-12-18T05:26:27;8.80;;;6.43;;
11427;SDS011;5770;44.504;11.346;2022-12-18T05:28:54;11.43;;;6.85;;
11427;SDS011;5770;44.504;11.346;2022-12-18T05:31:21;8.23;;;6.13;;
11427;SDS011;5770;44.504;11.346;2022-12-18T05:33:48;6.70;;;6.10;;
11427;SDS011;5770;44.504;11.346;2022-12-18T05:36:15;7.97;;;6.90;;
11427;SDS011;5770;44.504;11.346;2022-12-18T05:38:43;6.70;;;6.10;;
11427;SDS011;5770;44.504;11.346;2022-12-18T05:41:12;6.65;;;6.05;;
11427;SDS011;5770;44.504;11.346;2022-12-18T05:43:40;7.18;;;6.47;;
11427;SDS011;5770;44.504;11.346;2022-12-18T05:46:08;7.55;;;6.68;;
11427;SDS011;5770;44.504;11.346;2022-12-18T05:48:38;9.00;;;7.10;;
11427;SDS011;5770;44.504;11.346;2022-12-18T05:51:06;6.93;;;6.15;;
11427;SDS011;5770;44.504;11.346;2022-12-18T05:53:34;8.95;;;7.03;;
11427;SDS011;5770;44.504;11.346;2022-12-18T05:56:03;6.80;;;6.10;;
11427;SDS011;5770;44.504;11.346;2022-12-18T05:58:32;8.23;;;6.53;;
11427;SDS011;5770;44.504;11.346;2022-12-18T06:01:05;8.35;;;6.72;;
11427;SDS011;5770;44.504;11.346;2022-12-18T06:03:34;7.57;;;6.25;;
11427;SDS011;5770;44.504;11.346;2022-12-18T06:06:01;7.40;;;6.43;;
11427;SDS011;5770;44.504;11.346;2022-12-18T06:08:29;9.15;;;6.68;;
11427;SDS011;5770;44.504;11.346;2022-12-18T06:10:56;7.65;;;6.95;;
11427;SDS011;5770;44.504;11.346;2022-12-18T06:13:23;9.15;;;6.55;;
11427;SDS011;5770;44.504;11.346;2022-12-18T06:15:52;10.02;;;6.90;;
11427;SDS011;5770;44.504;11.346;2022-12-18T06:18:19;7.80;;;7.10;;
11427;SDS011;5770;44.504;11.346;2022-12-18T06:20:53;8.70;;;7.03;;
11427;SDS011;5770;44.504;11.346;2022-12-18T06:23:21;8.57;;;6.90;;
11427;SDS011;5770;44.504;11.346;2022-12-18T06:25:48;9.45;;;6.85;;
11427;SDS011;5770;44.504;11.346;2022-12-18T06:28:15;9.23;;;6.78;;
11427;SDS011;5770;44.504;11.346;2022-12-18T06:30:42;7.43;;;6.70;;
11427;SDS011;5770;44.504;11.346;2022-12-18T06:33:11;8.07;;;7.22;;
11427;SDS011;5770;44.504;11.346;2022-12-18T06:35:39;10.20;;;7.30;;
11427;SDS011;5770;44.504;11.346;2022-12-18T06:38:06;7.00;;;6.35;;
11427;SDS011;5770;44.504;11.346;2022-12-18T06:40:34;7.63;;;6.78;;
11427;SDS011;5770;44.504;11.346;2022-12-18T06:43:01;7.10;;;6.40;;
11427;SDS011;5770;44.504;11.346;2022-12-18T06:45:28;8.60;;;6.68;;
11427;SDS011;5770;44.504;11.346;2022-12-18T06:47:55;7.72;;;6.97;;
11427;SDS011;5770;44.504;11.346;2022-12-18T06:50:24;9.15;;;6.60;;
11427;SDS011;5770;44.504;11.346;2022-12-18T06:52:51;7.72;;;6.78;;
11427;SDS011;5770;44.504;11.346;2022-12-18T06:55:18;10.13;;;7.20;;
11427;SDS011;5770;44.504;11.346;2022-12-18T06:57:45;11.02;;;7.30;;
11427;SDS011;5770;44.504;11.346;2022-12-18T07:00:13;7.70;;;6.80;;
11427;SDS011;5770;44.504;11.346;2022-12-18T07:02:40;9.48;;;7.40;;
11427;SDS011;5770;44.504;11.346;2022-12-18T07:05:07;10.38;;;7.05;;
11427;SDS011;5770;44.504;11.346;2022-12-18T07:07:36;8.85;;;7.63;;
11427;SDS011;5770;44.504;11.346;2022-12-18T07:10:03;8.25;;;7.38;;
11427;SDS011;5770;44.504;11.346;2022-12-18T07:12:31;9.48;;;7.13;;
11427;SDS011;5770;44.504;11.346;2022-12-18T07:14:58;9.82;;;7.50;;
11427;SDS011;5770;44.504;11.346;2022-12-18T07:17:25;8.48;;;7.50;;
11427;SDS011;5770;44.504;11.346;2022-12-18T07:19:53;11.73;;;8.45;;
11427;SDS011;5770;44.504;11.346;2022-12-18T07:22:20;9.75;;;7.65;;
11427;SDS011;5770;44.504;11.346;2022-12-18T07:24:49;11.40;;;6.85;;
11427;SDS011;5770;44.504;11.346;2022-12-18T07:27:16;8.88;;;7.40;;
11427;SDS011;5770;44.504;11.346;2022-12-18T07:29:44;9.50;;;7.25;;
11427;SDS011;5770;44.504;11.346;2022-12-18T07:32:11;12.63;;;7.50;;
11427;SDS011;5770;44.504;11.346;2022-12-18T07:34:38;13.80;;;7.65;;
11427;SDS011;5770;44.504;11.346;2022-12-18T07:37:05;8.10;;;7.05;;
11427;SDS011;5770;44.504;11.346;2022-12-18T07:39:32;11.15;;;7.75;;
11427;SDS011;5770;44.504;11.346;2022-12-18T07:42:01;10.52;;;7.85;;
11427;SDS011;5770;44.504;11.346;2022-12-18T07:44:45;8.80;;;7.78;;
11427;SDS011;5770;44.504;11.346;2022-12-18T07:47:13;9.05;;;7.40;;
11427;SDS011;5770;44.504;11.346;2022-12-18T07:49:40;12.27;;;7.88;;
11427;SDS011;5770;44.504;11.346;2022-12-18T07:52:07;10.57;;;7.93;;
11427;SDS011;5770;44.504;11.346;2022-12-18T07:54:34;11.30;;;7.97;;
11427;SDS011;5770;44.504;11.346;2022-12-18T07:57:03;9.25;;;8.13;;
11427;SDS011;5770;44.504;11.346;2022-12-18T07:59:30;8.57;;;7.57;;
11427;SDS011;5770;44.504;11.346;2022-12-18T08:01:57;8.65;;;7.85;;
11427;SDS011;5770;44.504;11.346;2022-12-18T08:04:25;9.00;;;8.10;;
11427;SDS011;5770;44.504;11.346;2022-12-18T08:06:52;8.85;;;7.95;;
11427;SDS011;5770;44.504;11.346;2022-12-18T08:09:19;9.23;;;8.32;;
11427;SDS011;5770;44.504;11.346;2022-12-18T08:11:46;9.38;;;7.80;;
11427;SDS011;5770;44.504;11.346;2022-12-18T08:14:15;10.07;;;8.63;;
11427;SDS011;5770;44.504;11.346;2022-12-18T08:16:42;8.82;;;8.00;;
11427;SDS011;5770;44.504;11.346;2022-12-18T08:19:09;9.40;;;8.48;;
11427;SDS011;5770;44.504;11.346;2022-12-18T08:21:36;8.85;;;8.05;;
11427;SDS011;5770;44.504;11.346;2022-12-18T08:24:08;8.43;;;7.55;;
11427;SDS011;5770;44.504;11.346;2022-12-18T08:26:36;8.20;;;7.40;;
11427;SDS011;5770;44.504;11.346;2022-12-18T08:29:03;9.05;;;8.20;;
11427;SDS011;5770;44.504;11.346;2022-12-18T08:31:32;9.38;;;7.45;;
11427;SDS011;5770;44.504;11.346;2022-12-18T08:33:59;8.55;;;7.75;;
11427;SDS011;5770;44.504;11.346;2022-12-18T08:36:27;8.90;;;7.97;;
11427;SDS011;5770;44.504;11.346;2022-12-18T08:38:54;9.45;;;8.13;;
11427;SDS011;5770;44.504;11.346;2022-12-18T08:41:22;8.65;;;7.68;;
11427;SDS011;5770;44.504;11.346;2022-12-18T08:43:49;8.18;;;7.47;;
11427;SDS011;5770;44.504;11.346;2022-12-18T08:46:37;8.68;;;7.72;;
11427;SDS011;5770;44.504;11.346;2022-12-18T08:49:05;8.77;;;7.88;;
11427;SDS011;5770;44.504;11.346;2022-12-18T08:51:33;8.90;;;8.10;;
11427;SDS011;5770;44.504;11.346;2022-12-18T08:54:01;8.07;;;6.97;;
11427;SDS011;5770;44.504;11.346;2022-12-18T08:56:28;8.93;;;8.00;;
11427;SDS011;5770;44.504;11.346;2022-12-18T08:58:56;8.25;;;7.40;;
11427;SDS011;5770;44.504;11.346;2022-12-18T09:01:23;8.05;;;7.25;;
11427;SDS011;5770;44.504;11.346;2022-12-18T09:03:52;8.15;;;7.43;;
11427;SDS011;5770;44.504;11.346;2022-12-18T09:06:20;7.82;;;7.03;;
11427;SDS011;5770;44.504;11.346;2022-12-18T09:08:48;9.40;;;7.50;;
11427;SDS011;5770;44.504;11.346;2022-12-18T09:11:19;8.18;;;7.38;;
11427;SDS011;5770;44.504;11.346;2022-12-18T09:13:46;7.78;;;7.07;;
11427;SDS011;5770;44.504;11.346;2022-12-18T09:16:14;8.23;;;7.43;;
11427;SDS011;5770;44.504;11.346;2022-12-18T09:18:41;8.48;;;7.57;;
11427;SDS011;5770;44.504;11.346;2022-12-18T09:21:10;8.48;;;7.63;;
11427;SDS011;5770;44.504;11.346;2022-12-18T09:23:38;9.32;;;8.05;;
11427;SDS011;5770;44.504;11.346;2022-12-18T09:26:05;8.25;;;7.45;;
11427;SDS011;5770;44.504;11.346;2022-12-18T09:28:33;8.90;;;7.85;;
11427;SDS011;5770;44.504;11.346;2022-12-18T09:31:03;8.10;;;7.20;;
11427;SDS011;5770;44.504;11.346;2022-12-18T09:33:32;8.27;;;7.47;;
11427;SDS011;5770;44.504;11.346;2022-12-18T09:36:00;8.25;;;7.45;;
11427;SDS011;5770;44.504;11.346;2022-12-18T09:38:31;8.50;;;7.60;;
11427;SDS011;5770;44.504;11.346;2022-12-18T09:40:59;8.18;;;7.38;;
11427;SDS011;5770;44.504;11.346;2022-12-18T09:43:34;9.27;;;7.28;;
11427;SDS011;5770;44.504;11.346;2022-12-18T09:46:04;9.35;;;7.95;;
11427;SDS011;5770;44.504;11.346;2022-12-18T09:48:35;8.57;;;7.00;;
11427;SDS011;5770;44.504;11.346;2022-12-18T09:51:09;7.57;;;6.88;;
11427;SDS011;5770;44.504;11.346;2022-12-18T09:53:43;8.38;;;7.38;;
11427;SDS011;5770;44.504;11.346;2022-12-18T09:56:16;10.20;;;7.93;;
11427;SDS011;5770;44.504;11.346;2022-12-18T09:58:45;8.43;;;7.63;;
11427;SDS011;5770;44.504;11.346;2022-12-18T10:01:17;9.10;;;7.78;;
11427;SDS011;5770;44.504;11.346;2022-12-18T10:03:47;8.52;;;7.60;;
11427;SDS011;5770;44.504;11.346;2022-12-18T10:06:15;7.40;;;6.70;;
11427;SDS011;5770;44.504;11.346;2022-12-18T10:08:51;8.13;;;7.32;;
11427;SDS011;5770;44.504;11.346;2022-12-18T10:11:28;7.32;;;6.63;;
11427;SDS011;5770;44.504;11.346;2022-12-18T10:14:06;9.50;;;7.75;;
11427;SDS011;5770;44.504;11.346;2022-12-18T10:16:41;10.80;;;7.45;;
11427;SDS011;5770;44.504;11.346;2022-12-18T10:19:29;7.97;;;7.18;;
11427;SDS011;5770;44.504;11.346;2022-12-18T10:22:09;8.43;;;7.60;;
11427;SDS011;5770;44.504;11.346;2022-12-18T10:24:40;9.30;;;7.28;;
11427;SDS011;5770;44.504;11.346;2022-12-18T10:27:14;9.52;;;7.72;;
11427;SDS011;5770;44.504;11.346;2022-12-18T10:29:42;9.02;;;7.70;;
11427;SDS011;5770;44.504;11.346;2022-12-18T10:32:13;8.55;;;7.57;;
11427;SDS011;5770;44.504;11.346;2022-12-18T10:34:44;9.32;;;7.50;;
11427;SDS011;5770;44.504;11.346;2022-12-18T10:37:14;9.80;;;7.55;;
11427;SDS011;5770;44.504;11.346;2022-12-18T10:39:45;10.75;;;7.70;;
11427;SDS011;5770;44.504;11.346;2022-12-18T10:42:16;14.20;;;7.45;;
11427;SDS011;5770;44.504;11.346;2022-12-18T10:44:44;8.43;;;7.45;;
11427;SDS011;5770;44.504;11.346;2022-12-18T10:47:11;10.35;;;8.27;;
11427;SDS011;5770;44.504;11.346;2022-12-18T10:49:42;8.73;;;7.82;;
11427;SDS011;5770;44.504;11.346;2022-12-18T10:52:16;9.07;;;8.18;;
11427;SDS011;5770;44.504;11.346;2022-12-18T10:54:50;9.25;;;8.35;;
11427;SDS011;5770;44.504;11.346;2022-12-18T11:00:22;8.77;;;7.88;;
11427;SDS011;5770;44.504;11.346;2022-12-18T11:02:52;10.13;;;8.02;;
11427;SDS011;5770;44.504;11.346;2022-12-18T11:05:24;9.20;;;8.30;;
11427;SDS011;5770;44.504;11.346;2022-12-18T11:07:54;9.00;;;7.97;;
11427;SDS011;5770;44.504;11.346;2022-12-18T11:10:25;9.18;;;8.07;;
11427;SDS011;5770;44.504;11.346;2022-12-18T11:12:53;10.50;;;8.07;;
11427;SDS011;5770;44.504;11.346;2022-12-18T11:15:21;8.63;;;7.82;;
11427;SDS011;5770;44.504;11.346;2022-12-18T11:17:50;9.23;;;7.90;;
11427;SDS011;5770;44.504;11.346;2022-12-18T11:20:23;9.15;;;8.25;;
11427;SDS011;5770;44.504;11.346;2022-12-18T11:22:58;10.35;;;8.55;;
11427;SDS011;5770;44.504;11.346;2022-12-18T11:25:27;9.45;;;8.38;;
11427;SDS011;5770;44.504;11.346;2022-12-18T11:27:55;10.30;;;8.63;;
11427;SDS011;5770;44.504;11.346;2022-12-18T11:30:25;11.18;;;8.32;;
11427;SDS011;5770;44.504;11.346;2022-12-18T11:32:54;11.98;;;8.15;;
11427;SDS011;5770;44.504;11.346;2022-12-18T11:35:30;9.10;;;8.07;;
11427;SDS011;5770;44.504;11.346;2022-12-18T11:38:05;8.40;;;7.60;;
11427;SDS011;5770;44.504;11.346;2022-12-18T11:40:40;10.75;;;8.75;;
11427;SDS011;5770;44.504;11.346;2022-12-18T11:43:10;10.50;;;7.75;;
11427;SDS011;5770;44.504;11.346;2022-12-18T11:45:47;9.20;;;7.68;;
11427;SDS011;5770;44.504;11.346;2022-12-18T11:48:17;9.20;;;7.82;;
11427;SDS011;5770;44.504;11.346;2022-12-18T11:50:49;9.98;;;8.35;;
11427;SDS011;5770;44.504;11.346;2022-12-18T11:53:17;29.35;;;9.57;;
11427;SDS011;5770;44.504;11.346;2022-12-18T11:55:51;8.48;;;7.57;;
11427;SDS011;5770;44.504;11.346;2022-12-18T11:58:24;9.98;;;8.05;;
11427;SDS011;5770;44.504;11.346;2022-12-18T12:01:07;10.93;;;8.75;;
11427;SDS011;5770;44.504;11.346;2022-12-18T12:03:42;11.02;;;8.15;;
11427;SDS011;5770;44.504;11.346;2022-12-18T12:06:35;9.10;;;7.93;;
11427;SDS011;5770;44.504;11.346;2022-12-18T12:09:08;10.60;;;8.32;;
11427;SDS011;5770;44.504;11.346;2022-12-18T12:11:47;8.00;;;7.20;;
11427;SDS011;5770;44.504;11.346;2022-12-18T12:14:25;8.85;;;7.70;;
11427;SDS011;5770;44.504;11.346;2022-12-18T12:16:56;10.48;;;8.57;;
11427;SDS011;5770;44.504;11.346;2022-12-18T12:19:31;9.32;;;8.02;;
11427;SDS011;5770;44.504;11.346;2022-12-18T12:22:03;8.35;;;7.55;;
11427;SDS011;5770;44.504;11.346;2022-12-18T12:24:39;10.10;;;8.02;;
11427;SDS011;5770;44.504;11.346;2022-12-18T12:27:20;9.90;;;8.13;;
11427;SDS011;5770;44.504;11.346;2022-12-18T12:30:00;9.82;;;8.43;;
11427;SDS011;5770;44.504;11.346;2022-12-18T12:32:34;9.10;;;7.85;;
11427;SDS011;5770;44.504;11.346;2022-12-18T12:35:08;8.82;;;7.15;;
11427;SDS011;5770;44.504;11.346;2022-12-18T12:37:45;9.82;;;7.97;;
11427;SDS011;5770;44.504;11.346;2022-12-18T12:40:23;9.23;;;8.15;;
11427;SDS011;5770;44.504;11.346;2022-12-18T12:42:57;8.73;;;7.82;;
11427;SDS011;5770;44.504;11.346;2022-12-18T12:45:42;12.80;;;9.20;;
11427;SDS011;5770;44.504;11.346;2022-12-18T12:48:17;11.40;;;9.93;;
11427;SDS011;5770;44.504;11.346;2022-12-18T12:50:45;11.93;;;8.57;;
11427;SDS011;5770;44.504;11.346;2022-12-18T12:53:16;11.50;;;8.18;;
11427;SDS011;5770;44.504;11.346;2022-12-18T12:55:50;8.45;;;7.18;;
11427;SDS011;5770;44.504;11.346;2022-12-18T12:58:21;10.63;;;8.27;;
11427;SDS011;5770;44.504;11.346;2022-12-18T13:00:52;10.23;;;8.82;;
11427;SDS011;5770;44.504;11.346;2022-12-18T13:03:24;11.68;;;8.30;;
11427;SDS011;5770;44.504;11.346;2022-12-18T13:06:02;10.70;;;8.98;;
11427;SDS011;5770;44.504;11.346;2022-12-18T13:08:51;9.82;;;8.52;;
11427;SDS011;5770;44.504;11.346;2022-12-18T13:11:30;10.25;;;9.13;;
11427;SDS011;5770;44.504;11.346;2022-12-18T13:14:24;12.55;;;11.23;;
11427;SDS011;5770;44.504;11.346;2022-12-18T13:19:42;11.55;;;9.68;;
11427;SDS011;5770;44.504;11.346;2022-12-18T13:22:20;12.77;;;9.95;;
11427;SDS011;5770;44.504;11.346;2022-12-18T13:24:49;9.77;;;8.77;;
11427;SDS011;5770;44.504;11.346;2022-12-18T13:30:11;10.38;;;9.38;;
11427;SDS011;5770;44.504;11.346;2022-12-18T13:36:09;9.48;;;8.50;;
11427;SDS011;5770;44.504;11.346;2022-12-18T13:38:42;10.02;;;9.00;;
11427;SDS011;5770;44.504;11.346;2022-12-18T13:41:23;10.48;;;9.07;;
11427;SDS011;5770;44.504;11.346;2022-12-18T13:43:51;11.30;;;9.85;;
11427;SDS011;5770;44.504;11.346;2022-12-18T13:46:28;11.02;;;9.48;;
11427;SDS011;5770;44.504;11.346;2022-12-18T13:49:00;12.40;;;9.60;;
11427;SDS011;5770;44.504;11.346;2022-12-18T13:51:28;10.82;;;9.07;;
11427;SDS011;5770;44.504;11.346;2022-12-18T13:53:57;11.43;;;9.52;;
11427;SDS011;5770;44.504;11.346;2022-12-18T13:56:26;10.10;;;9.20;;
11427;SDS011;5770;44.504;11.346;2022-12-18T14:01:40;35.85;;;25.85;;
11427;SDS011;5770;44.504;11.346;2022-12-18T14:04:08;17.00;;;13.93;;
11427;SDS011;5770;44.504;11.346;2022-12-18T14:06:39;16.08;;;13.15;;
11427;SDS011;5770;44.504;11.346;2022-12-18T14:09:10;39.63;;;28.17;;
11427;SDS011;5770;44.504;11.346;2022-12-18T14:11:40;90.38;;;54.67;;
11427;SDS011;5770;44.504;11.346;2022-12-18T14:14:13;24.58;;;20.50;;
11427;SDS011;5770;44.504;11.346;2022-12-18T14:16:42;10.95;;;9.88;;
11427;SDS011;5770;44.504;11.346;2022-12-18T14:19:12;11.52;;;10.38;;
11427;SDS011;5770;44.504;11.346;2022-12-18T14:21:47;13.55;;;9.93;;
11427;SDS011;5770;44.504;11.346;2022-12-18T14:24:15;11.77;;;10.57;;
11427;SDS011;5770;44.504;11.346;2022-12-18T14:26:43;10.93;;;9.77;;
11427;SDS011;5770;44.504;11.346;2022-12-18T14:29:21;11.90;;;10.20;;
11427;SDS011;5770;44.504;11.346;2022-12-18T14:32:10;11.35;;;10.13;;
11427;SDS011;5770;44.504;11.346;2022-12-18T14:34:39;13.07;;;10.13;;
11427;SDS011;5770;44.504;11.346;2022-12-18T14:37:09;11.18;;;10.05;;
11427;SDS011;5770;44.504;11.346;2022-12-18T14:39:36;11.80;;;10.57;;
11427;SDS011;5770;44.504;11.346;2022-12-18T14:42:04;11.65;;;10.45;;
11427;SDS011;5770;44.504;11.346;2022-12-18T14:44:31;12.60;;;10.98;;
11427;SDS011;5770;44.504;11.346;2022-12-18T14:46:58;13.13;;;10.55;;
11427;SDS011;5770;44.504;11.346;2022-12-18T14:49:29;11.93;;;10.73;;
11427;SDS011;5770;44.504;11.346;2022-12-18T14:51:57;11.65;;;9.90;;
11427;SDS011;5770;44.504;11.346;2022-12-18T14:54:25;11.30;;;10.20;;
11427;SDS011;5770;44.504;11.346;2022-12-18T14:56:54;12.70;;;11.00;;
11427;SDS011;5770;44.504;11.346;2022-12-18T14:59:24;12.70;;;10.73;;
11427;SDS011;5770;44.504;11.346;2022-12-18T15:01:56;11.57;;;10.38;;
11427;SDS011;5770;44.504;11.346;2022-12-18T15:04:25;11.93;;;10.70;;
11427;SDS011;5770;44.504;11.346;2022-12-18T15:07:12;11.82;;;10.52;;
11427;SDS011;5770;44.504;11.346;2022-12-18T15:09:40;15.50;;;11.15;;
11427;SDS011;5770;44.504;11.346;2022-12-18T15:12:17;12.13;;;10.90;;
11427;SDS011;5770;44.504;11.346;2022-12-18T15:14:46;13.05;;;11.05;;
11427;SDS011;5770;44.504;11.346;2022-12-18T15:17:17;12.25;;;11.05;;
11427;SDS011;5770;44.504;11.346;2022-12-18T15:19:45;14.85;;;11.00;;
11427;SDS011;5770;44.504;11.346;2022-12-18T15:22:17;13.13;;;11.68;;
11427;SDS011;5770;44.504;11.346;2022-12-18T15:24:45;13.07;;;11.77;;